createdAt,value
2022-11-07T00:01:27.613Z,30.00
2022-11-07T00:04:12.617Z,27.75
2022-11-07T00:06:58.684Z,28.83
2022-11-07T00:09:43.660Z,31.92
2022-11-07T00:12:28.813Z,26.05
2022-11-07T00:15:14.090Z,34.20
2022-11-07T00:17:59.220Z,28.70
2022-11-07T00:20:44.424Z,34.97
2022-11-07T00:23:29.617Z,24.02
2022-11-07T00:26:15.422Z,23.33
2022-11-07T00:29:00.774Z,20.50
2022-11-07T00:31:47.167Z,23.25
2022-11-07T00:34:35.225Z,32.65
2022-11-07T00:37:20.392Z,24.63
2022-11-07T00:40:05.887Z,28.08
2022-11-07T00:42:51.336Z,31.10
2022-11-07T00:45:36.353Z,25.75
2022-11-07T00:48:21.998Z,30.02
2022-11-07T00:51:19.648Z,28.30
2022-11-07T00:54:05.502Z,27.40
2022-11-07T00:56:50.423Z,34.47
2022-11-07T00:59:35.381Z,28.30
2022-11-07T01:02:20.456Z,37.08
2022-11-07T01:05:12.416Z,32.83
2022-11-07T01:07:57.419Z,36.65
2022-11-07T01:10:42.727Z,28.00
2022-11-07T01:13:27.699Z,30.92
2022-11-07T01:16:12.719Z,28.88
2022-11-07T01:18:58.113Z,39.00
2022-11-07T01:21:43.760Z,28.10
2022-11-07T01:24:28.774Z,30.80
2022-11-07T01:27:13.757Z,25.52
2022-11-07T01:29:58.786Z,31.88
2022-11-07T01:32:43.928Z,25.65
2022-11-07T01:35:28.876Z,26.35
2022-11-07T01:38:13.944Z,26.40
2022-11-07T01:41:17.517Z,34.63
2022-11-07T01:44:08.698Z,33.97
2022-11-07T01:46:57.239Z,26.80
2022-11-07T01:49:43.446Z,27.33
2022-11-07T01:52:36.364Z,25.98
2022-11-07T01:55:30.045Z,20.15
2022-11-07T01:58:15.116Z,17.90
2022-11-07T02:01:00.597Z,17.70
2022-11-07T02:03:47.105Z,29.55
2022-11-07T02:06:42.130Z,24.63
2022-11-07T02:09:27.622Z,22.80
2022-11-07T02:12:13.775Z,35.30
2022-11-07T02:14:59.148Z,25.38
2022-11-07T02:17:44.365Z,21.77
2022-11-07T02:20:29.631Z,23.10
2022-11-07T02:23:22.211Z,28.80
2022-11-07T02:26:07.392Z,29.60
2022-11-07T02:28:55.060Z,24.92
2022-11-07T02:31:40.134Z,30.27
2022-11-07T02:34:25.061Z,31.08
2022-11-07T02:37:20.872Z,31.55
2022-11-07T02:40:10.193Z,32.38
2022-11-07T02:42:55.448Z,27.42
2022-11-07T02:45:44.081Z,38.70
2022-11-07T02:48:40.407Z,33.00
2022-11-07T02:51:25.918Z,29.38
2022-11-07T02:54:11.003Z,33.42
2022-11-07T02:56:55.930Z,25.05
2022-11-07T02:59:40.636Z,32.72
2022-11-07T03:02:26.523Z,38.55
2022-11-07T03:05:11.415Z,35.28
2022-11-07T03:07:58.491Z,35.00
2022-11-07T03:10:43.516Z,28.17
2022-11-07T03:13:28.511Z,31.02
2022-11-07T03:16:13.913Z,35.05
2022-11-07T03:18:58.819Z,26.23
2022-11-07T03:21:43.847Z,35.75
2022-11-07T03:24:29.225Z,33.53
2022-11-07T03:27:15.489Z,33.13
2022-11-07T03:30:00.496Z,23.35
2022-11-07T03:32:46.028Z,34.88
2022-11-07T03:35:31.302Z,33.28
2022-11-07T03:38:16.196Z,32.03
2022-11-07T03:41:01.053Z,30.95
2022-11-07T03:43:46.895Z,25.63
2022-11-07T03:46:31.874Z,36.78
2022-11-07T03:49:17.226Z,39.20
2022-11-07T03:52:02.456Z,34.35
2022-11-07T03:54:47.636Z,41.30
2022-11-07T03:57:32.641Z,31.02
2022-11-07T04:00:18.109Z,33.13
2022-11-07T04:03:04.445Z,31.00
2022-11-07T04:05:49.719Z,32.50
2022-11-07T04:08:35.818Z,37.10
2022-11-07T04:11:39.216Z,36.05
2022-11-07T04:14:43.091Z,30.35
2022-11-07T04:17:30.527Z,30.70
2022-11-07T04:20:15.916Z,38.95
2022-11-07T04:23:01.108Z,39.83
2022-11-07T04:26:04.843Z,26.95
2022-11-07T04:28:49.971Z,41.55
2022-11-07T04:31:34.967Z,39.17
2022-11-07T04:34:20.040Z,34.85
2022-11-07T04:37:05.028Z,35.65
2022-11-07T04:39:50.283Z,38.83
2022-11-07T04:42:35.266Z,37.40
2022-11-07T04:45:20.571Z,36.60
2022-11-07T04:48:06.324Z,46.05
2022-11-07T04:50:51.325Z,41.22
2022-11-07T04:53:36.540Z,40.95
2022-11-07T04:56:21.401Z,41.78
2022-11-07T04:59:07.144Z,46.58
2022-11-07T05:01:52.167Z,39.75
2022-11-07T05:04:37.259Z,36.53
2022-11-07T05:07:22.510Z,39.90
2022-11-07T05:10:12.160Z,34.85
2022-11-07T05:12:58.482Z,33.40
2022-11-07T05:15:43.754Z,42.65
2022-11-07T05:18:28.982Z,33.47
2022-11-07T05:21:13.993Z,32.45
2022-11-07T05:23:58.883Z,36.42
2022-11-07T05:26:44.038Z,28.02
2022-11-07T05:29:28.983Z,32.00
2022-11-07T05:32:14.711Z,33.15
2022-11-07T05:35:00.043Z,33.58
2022-11-07T05:37:45.183Z,38.72
2022-11-07T05:40:31.120Z,33.45
2022-11-07T05:43:16.693Z,25.67
2022-11-07T05:46:02.085Z,33.65
2022-11-07T05:48:47.587Z,36.72
2022-11-07T05:51:32.809Z,26.45
2022-11-07T05:54:18.018Z,28.67
2022-11-07T05:57:03.084Z,39.85
2022-11-07T05:59:48.315Z,32.83
2022-11-07T06:02:33.380Z,36.15
2022-11-07T06:05:23.085Z,37.78
2022-11-07T06:08:11.443Z,34.58
2022-11-07T06:10:56.781Z,29.85
2022-11-07T06:13:41.888Z,43.35
2022-11-07T06:16:27.865Z,37.95
2022-11-07T06:19:13.053Z,37.97
2022-11-07T06:22:00.366Z,29.48
2022-11-07T06:24:45.591Z,33.80
2022-11-07T06:27:31.012Z,33.47
2022-11-07T06:30:16.306Z,27.48
2022-11-07T06:33:03.427Z,38.67
2022-11-07T06:35:49.076Z,40.90
2022-11-07T06:38:34.800Z,48.97
2022-11-07T06:41:19.977Z,39.67
2022-11-07T06:44:05.165Z,31.73
2022-11-07T06:46:50.180Z,39.67
2022-11-07T06:49:35.449Z,24.90
2022-11-07T06:52:20.288Z,32.50
2022-11-07T06:55:05.551Z,33.78
2022-11-07T06:57:50.518Z,24.48
2022-11-07T07:00:37.130Z,33.72
2022-11-07T07:03:22.313Z,26.83
2022-11-07T07:06:11.462Z,18.58
2022-11-07T07:08:57.791Z,26.20
2022-11-07T07:11:44.944Z,21.13
2022-11-07T07:14:30.197Z,16.92
2022-11-07T07:17:15.907Z,18.60
2022-11-07T07:20:01.049Z,19.52
2022-11-07T07:22:48.214Z,16.23
2022-11-07T07:25:36.874Z,20.45
2022-11-07T07:28:22.230Z,25.70
2022-11-07T07:31:14.235Z,25.20
2022-11-07T07:33:59.598Z,22.17
2022-11-07T07:36:44.900Z,24.00
2022-11-07T07:39:30.801Z,28.75
2022-11-07T07:42:15.743Z,26.50
2022-11-07T07:45:00.723Z,24.75
2022-11-07T07:47:45.554Z,25.88
2022-11-07T07:50:30.846Z,24.20
2022-11-07T07:53:17.105Z,26.90
2022-11-07T07:56:06.836Z,28.58
2022-11-07T07:58:51.760Z,26.20
2022-11-07T08:01:37.135Z,26.77
2022-11-07T08:04:22.116Z,30.10
2022-11-07T08:07:07.414Z,24.55
2022-11-07T08:09:52.374Z,27.80
2022-11-07T08:12:37.301Z,26.08
2022-11-07T08:15:22.763Z,23.13
2022-11-07T08:18:07.872Z,33.83
2022-11-07T08:20:55.307Z,20.48
2022-11-07T08:23:40.170Z,18.25
2022-11-07T08:26:26.314Z,16.90
2022-11-07T08:29:11.626Z,27.17
2022-11-07T08:31:57.668Z,19.38
2022-11-07T08:34:42.631Z,25.67
2022-11-07T08:37:27.454Z,22.88
2022-11-07T08:40:13.213Z,23.52
2022-11-07T08:43:01.211Z,19.00
2022-11-07T08:45:48.628Z,20.90
2022-11-07T08:48:34.138Z,25.08
2022-11-07T08:51:19.267Z,20.60
2022-11-07T08:54:04.504Z,21.58
2022-11-07T08:56:49.715Z,30.33
2022-11-07T08:59:34.925Z,19.63
2022-11-07T09:05:25.217Z,21.23
2022-11-07T09:08:10.320Z,22.77
2022-11-07T09:10:55.372Z,19.67
2022-11-07T09:13:40.443Z,19.42
2022-11-07T09:16:25.408Z,22.80
2022-11-07T09:19:10.661Z,19.38
2022-11-07T09:21:57.249Z,17.52
2022-11-07T09:24:42.288Z,22.40
2022-11-07T09:27:27.396Z,19.38
2022-11-07T09:30:12.789Z,21.88
2022-11-07T09:32:57.947Z,15.05
2022-11-07T09:35:43.140Z,10.43
2022-11-07T09:38:29.333Z,12.57
2022-11-07T09:41:29.442Z,10.98
2022-11-07T09:44:48.558Z,16.38
2022-11-07T09:47:38.124Z,10.73
2022-11-07T09:50:34.973Z,19.73
2022-11-07T09:53:35.096Z,21.85
2022-11-07T09:56:19.969Z,32.55
2022-11-07T09:59:12.926Z,27.00
2022-11-07T10:01:59.472Z,26.27
2022-11-07T10:04:46.043Z,30.55
2022-11-07T10:07:46.108Z,27.52
2022-11-07T10:10:46.715Z,34.47
2022-11-07T10:13:40.688Z,28.33
2022-11-07T10:16:28.745Z,24.73
2022-11-07T10:19:40.856Z,35.55
2022-11-07T10:22:41.201Z,25.48
2022-11-07T10:25:42.238Z,32.38
2022-11-07T10:28:27.605Z,30.58
2022-11-07T10:31:15.067Z,26.92
2022-11-07T10:34:05.079Z,20.13
2022-11-07T10:39:35.520Z,17.70
2022-11-07T10:42:25.519Z,18.65
2022-11-07T10:45:14.221Z,21.85
2022-11-07T10:48:02.850Z,15.30
2022-11-07T10:50:52.881Z,21.52
2022-11-07T10:53:44.023Z,20.05
2022-11-07T10:56:29.323Z,17.83
2022-11-07T10:59:24.403Z,21.20
2022-11-07T11:02:31.397Z,22.48
2022-11-07T11:05:23.837Z,22.30
2022-11-07T11:08:22.760Z,28.17
2022-11-07T11:11:28.654Z,26.92
2022-11-07T11:14:16.046Z,26.40
2022-11-07T11:17:01.378Z,27.90
2022-11-07T11:19:52.944Z,27.38
2022-11-07T11:22:42.119Z,33.38
2022-11-07T11:25:27.604Z,31.20
2022-11-07T11:28:36.816Z,35.53
2022-11-07T11:31:36.969Z,43.53
2022-11-07T11:34:55.219Z,29.90
2022-11-07T11:37:43.754Z,40.38
2022-11-07T11:40:35.643Z,33.25
2022-11-07T11:43:24.001Z,34.50
2022-11-07T11:46:42.116Z,39.83
2022-11-07T11:50:05.740Z,23.27
2022-11-07T11:52:51.326Z,24.65
2022-11-07T11:55:49.645Z,30.63
2022-11-07T11:58:46.329Z,33.95
2022-11-07T12:01:40.939Z,32.72
2022-11-07T12:04:40.776Z,24.10
2022-11-07T12:10:55.555Z,19.83
2022-11-07T12:14:06.229Z,17.27
2022-11-07T12:16:55.948Z,24.60
2022-11-07T12:19:53.876Z,23.88
2022-11-07T12:22:52.959Z,23.02
2022-11-07T12:25:50.403Z,18.73
2022-11-07T12:29:03.264Z,14.98
2022-11-07T12:32:09.344Z,17.85
2022-11-07T12:35:08.182Z,25.80
2022-11-07T12:38:03.624Z,24.15
2022-11-07T12:41:12.829Z,13.38
2022-11-07T12:44:28.183Z,15.27
2022-11-07T12:47:32.193Z,14.07
2022-11-07T12:50:38.725Z,17.13
2022-11-07T12:53:35.964Z,15.85
2022-11-07T12:56:27.404Z,18.30
2022-11-07T12:59:20.984Z,22.15
2022-11-07T13:02:15.796Z,30.45
2022-11-07T13:05:37.537Z,28.75
2022-11-07T13:08:35.679Z,30.80
2022-11-07T13:11:48.909Z,31.10
2022-11-07T13:14:37.766Z,33.03
2022-11-07T13:17:27.581Z,33.57
2022-11-07T13:20:21.955Z,29.90
2022-11-07T13:23:15.318Z,37.35
2022-11-07T13:26:10.707Z,34.83
2022-11-07T13:29:23.757Z,30.77
2022-11-07T13:32:15.204Z,24.73
2022-11-07T13:35:02.810Z,42.25
2022-11-07T13:37:50.928Z,35.60
2022-11-07T13:40:40.020Z,34.55
2022-11-07T13:43:44.567Z,32.05
2022-11-07T13:46:46.417Z,28.48
2022-11-07T13:49:49.278Z,24.33
2022-11-07T13:52:56.896Z,31.65
2022-11-07T13:55:46.174Z,27.13
2022-11-07T13:58:35.807Z,44.13
2022-11-07T14:01:22.633Z,28.23
2022-11-07T14:04:22.873Z,32.45
2022-11-07T14:07:08.282Z,31.83
2022-11-07T14:09:59.040Z,34.67
2022-11-07T14:12:44.692Z,34.70
2022-11-07T14:15:30.664Z,28.90
2022-11-07T14:18:18.579Z,31.15
2022-11-07T14:21:04.594Z,32.03
2022-11-07T14:23:49.788Z,27.55
2022-11-07T14:26:36.901Z,27.75
2022-11-07T14:29:23.905Z,28.88
2022-11-07T14:32:17.096Z,31.60
2022-11-07T14:35:08.349Z,28.77
2022-11-07T14:37:53.556Z,32.65
2022-11-07T14:40:41.707Z,38.63
2022-11-07T14:43:29.218Z,41.63
2022-11-07T14:46:25.137Z,35.30
2022-11-07T14:49:36.868Z,27.25
2022-11-07T14:52:24.700Z,29.48
2022-11-07T14:55:20.733Z,25.65
2022-11-07T14:58:06.940Z,27.73
2022-11-07T15:00:57.252Z,38.15
2022-11-07T15:03:57.824Z,33.50
2022-11-07T15:06:45.006Z,26.98
2022-11-07T15:09:32.576Z,29.42
2022-11-07T15:12:29.603Z,37.97
2022-11-07T15:15:32.979Z,32.15
2022-11-07T15:18:26.797Z,34.83
2022-11-07T15:21:26.001Z,34.63
2022-11-07T15:24:29.681Z,43.55
2022-11-07T15:27:14.700Z,35.65
2022-11-07T15:30:01.896Z,35.60
2022-11-07T15:32:46.987Z,35.90
2022-11-07T15:35:47.710Z,37.15
2022-11-07T15:38:32.936Z,32.47
2022-11-07T15:41:18.894Z,37.45
2022-11-07T15:44:04.200Z,29.00
2022-11-07T15:46:49.264Z,35.05
2022-11-07T15:49:34.807Z,40.58
2022-11-07T15:52:19.801Z,30.83
2022-11-07T15:55:05.073Z,41.65
2022-11-07T15:57:52.337Z,30.45
2022-11-07T16:00:37.414Z,31.42
2022-11-07T16:03:25.299Z,33.92
2022-11-07T16:06:19.476Z,33.17
2022-11-07T16:09:15.056Z,30.48
2022-11-07T16:12:00.330Z,46.30
2022-11-07T16:14:45.625Z,27.67
2022-11-07T16:17:32.230Z,30.23
2022-11-07T16:20:19.969Z,29.70
2022-11-07T16:23:05.210Z,23.10
2022-11-07T16:25:50.856Z,31.00
2022-11-07T16:28:36.305Z,27.30
2022-11-07T16:31:21.356Z,21.17
2022-11-07T16:34:06.480Z,19.30
2022-11-07T16:36:51.737Z,19.98
2022-11-07T16:39:37.040Z,20.77
2022-11-07T16:42:22.372Z,19.20
2022-11-07T16:45:08.300Z,21.65
2022-11-07T16:47:53.318Z,23.42
2022-11-07T16:50:38.264Z,21.67
2022-11-07T16:53:25.135Z,26.55
2022-11-07T16:56:30.110Z,27.77
2022-11-07T16:59:23.339Z,25.65
2022-11-07T17:02:22.143Z,27.85
2022-11-07T17:05:07.926Z,22.83
2022-11-07T17:07:55.151Z,30.30
2022-11-07T17:10:40.085Z,27.00
2022-11-07T17:13:24.980Z,30.05
2022-11-07T17:16:22.673Z,20.40
2022-11-07T17:19:07.604Z,32.65
2022-11-07T17:21:52.447Z,34.88
2022-11-07T17:24:37.664Z,30.23
2022-11-07T17:27:25.429Z,26.50
2022-11-07T17:30:17.869Z,30.35
2022-11-07T17:33:03.507Z,25.23
2022-11-07T17:35:52.756Z,41.95
2022-11-07T17:38:38.066Z,30.77
2022-11-07T17:41:23.041Z,27.85
2022-11-07T17:44:08.726Z,37.90
2022-11-07T17:46:55.320Z,32.10
2022-11-07T17:49:40.212Z,32.72
2022-11-07T17:52:25.347Z,20.52
2022-11-07T17:55:11.148Z,42.58
2022-11-07T17:57:56.303Z,30.83
2022-11-07T18:00:41.392Z,35.97
2022-11-07T18:03:26.621Z,26.33
2022-11-07T18:06:11.968Z,35.13
2022-11-07T18:08:58.542Z,31.52
2022-11-07T18:11:44.332Z,29.02
2022-11-07T18:14:29.574Z,31.25
2022-11-07T18:17:14.570Z,31.45
2022-11-07T18:19:59.427Z,44.53
2022-11-07T18:22:44.534Z,28.92
2022-11-07T18:25:30.983Z,30.63
2022-11-07T18:28:16.237Z,32.38
2022-11-07T18:31:06.584Z,33.17
2022-11-07T18:33:57.348Z,34.15
2022-11-07T18:36:44.349Z,42.72
2022-11-07T18:39:29.394Z,41.30
2022-11-07T18:42:14.806Z,31.08
2022-11-07T18:44:59.620Z,28.25
2022-11-07T18:47:44.642Z,28.20
2022-11-07T18:50:29.689Z,34.10
2022-11-07T18:53:15.143Z,20.80
2022-11-07T18:56:03.939Z,24.45
2022-11-07T18:58:48.832Z,28.88
2022-11-07T19:01:34.114Z,25.70
2022-11-07T19:04:19.790Z,27.23
2022-11-07T19:07:04.955Z,27.45
2022-11-07T19:09:49.974Z,20.58
2022-11-07T19:12:35.456Z,23.73
2022-11-07T19:15:24.858Z,26.85
2022-11-07T19:18:09.959Z,26.35
2022-11-07T19:20:54.907Z,19.48
2022-11-07T19:23:40.721Z,23.90
2022-11-07T19:26:25.857Z,26.73
2022-11-07T19:29:10.959Z,27.40
2022-11-07T19:31:56.214Z,29.05
2022-11-07T19:34:41.264Z,26.90
2022-11-07T19:37:26.172Z,29.63
2022-11-07T19:40:11.263Z,29.83
2022-11-07T19:42:58.922Z,25.95
2022-11-07T19:45:44.217Z,27.08
2022-11-07T19:48:29.290Z,28.45
2022-11-07T19:51:21.266Z,26.60
2022-11-07T19:54:08.387Z,30.05
2022-11-07T19:56:57.428Z,30.50
2022-11-07T19:59:43.833Z,27.58
2022-11-07T20:02:34.436Z,26.95
2022-11-07T20:05:25.174Z,23.65
2022-11-07T20:08:10.129Z,27.58
2022-11-07T20:10:55.122Z,28.15
2022-11-07T20:13:40.137Z,26.98
2022-11-07T20:16:25.131Z,22.38
2022-11-07T20:19:11.117Z,32.72
2022-11-07T20:21:56.465Z,25.83
2022-11-07T20:24:41.452Z,25.17
2022-11-07T20:27:28.043Z,24.67
2022-11-07T20:30:13.836Z,20.45
2022-11-07T20:32:58.809Z,20.45
2022-11-07T20:35:44.342Z,26.23
2022-11-07T20:38:30.437Z,25.10
2022-11-07T20:41:15.508Z,24.77
2022-11-07T20:44:04.143Z,26.77
2022-11-07T20:46:49.520Z,23.30
2022-11-07T20:49:35.008Z,27.15
2022-11-07T20:52:19.928Z,26.20
2022-11-07T20:55:05.597Z,21.80
2022-11-07T20:57:50.469Z,26.13
2022-11-07T21:00:36.585Z,27.02
2022-11-07T21:03:21.710Z,23.13
2022-11-07T21:06:11.236Z,26.83
2022-11-07T21:08:56.883Z,23.52
2022-11-07T21:11:42.257Z,23.02
2022-11-07T21:14:27.501Z,29.40
2022-11-07T21:17:12.751Z,23.13
2022-11-07T21:19:57.696Z,25.90
2022-11-07T21:22:42.660Z,27.88
2022-11-07T21:25:28.336Z,28.13
2022-11-07T21:28:17.921Z,22.65
2022-11-07T21:31:06.562Z,20.65
2022-11-07T21:33:52.127Z,20.13
2022-11-07T21:36:38.001Z,18.40
2022-11-07T21:39:23.172Z,21.77
2022-11-07T21:42:08.194Z,17.35
2022-11-07T21:44:53.413Z,19.38
2022-11-07T21:47:43.211Z,21.10
2022-11-07T21:50:44.231Z,24.13
2022-11-07T21:53:32.241Z,22.42
2022-11-07T21:56:31.942Z,28.70
2022-11-07T21:59:19.063Z,16.27
2022-11-07T22:02:04.528Z,19.98
2022-11-07T22:04:49.890Z,23.25
2022-11-07T22:07:38.046Z,27.58
2022-11-07T22:10:22.926Z,25.77
2022-11-07T22:13:09.294Z,22.67
2022-11-07T22:16:12.493Z,23.23
2022-11-07T22:18:59.537Z,24.88
2022-11-07T22:21:44.725Z,15.23
2022-11-07T22:24:29.846Z,21.15
2022-11-07T22:27:15.190Z,25.00
2022-11-07T22:30:00.380Z,19.45
2022-11-07T22:32:45.580Z,15.93
2022-11-07T22:35:30.571Z,19.63
2022-11-07T22:38:15.563Z,20.63
2022-11-07T22:41:01.695Z,25.20
2022-11-07T22:43:47.733Z,24.67
2022-11-07T22:46:32.818Z,21.52
2022-11-07T22:49:17.945Z,19.40
2022-11-07T22:52:03.234Z,22.35
2022-11-07T22:54:48.441Z,13.50
2022-11-07T22:57:33.282Z,22.80
2022-11-07T23:00:22.203Z,18.83
2022-11-07T23:03:07.500Z,24.60
2022-11-07T23:05:52.631Z,17.80
2022-11-07T23:08:38.403Z,20.75
2022-11-07T23:14:31.800Z,11.95
2022-11-07T23:17:16.815Z,14.75
2022-11-07T23:20:01.825Z,22.77
2022-11-07T23:22:46.775Z,25.17
2022-11-07T23:25:32.037Z,18.50
2022-11-07T23:28:17.290Z,11.75
2022-11-07T23:31:02.540Z,16.27
2022-11-07T23:33:47.786Z,26.88
2022-11-07T23:36:33.141Z,20.60
2022-11-07T23:39:20.981Z,18.73
2022-11-07T23:42:06.482Z,15.07
2022-11-07T23:45:24.246Z,24.75
2022-11-07T23:48:31.386Z,14.85
2022-11-07T23:51:17.150Z,15.18
2022-11-07T23:54:21.619Z,18.60
2022-11-07T23:57:07.017Z,19.38
